This is the latest recevied weather packets stored in our database for station/object N0EDB-13. If no packets are shown the sender has not sent any weather packets the latest 10 day(s).
| Time | Temp. | Humidity | Pressure | Rain* | Wind** | Luminosity | Snow |
|---|---|---|---|---|---|---|---|
| 1777813529 | 10° C | 50% | 1502 hPa | 0 mm | - | 121 W/m² | - |
| 1777813228 | 10° C | 52% | 1503.3 hPa | 0 mm | - | 114 W/m² | - |
| 1777812927 | 8.89° C | 52% | 1505 hPa | 0 mm | - | 113 W/m² | - |
| 1777812626 | 8.33° C | 54% | 1507.1 hPa | 0 mm | - | 101 W/m² | - |
| 1777812326 | 7.78° C | 56% | 1508.5 hPa | 0 mm | - | 56 W/m² | - |
| 1777812025 | 7.78° C | 56% | 1509.3 hPa | 0 mm | - | 51 W/m² | - |
| 1777811724 | 7.22° C | 57% | 1510.2 hPa | 0 mm | - | 45 W/m² | - |
| 1777811424 | 6.67° C | 58% | 1511.4 hPa | 0 mm | - | 37 W/m² | - |
| 1777811123 | 6.67° C | 58% | 1512.6 hPa | 0 mm | - | 32 W/m² | - |
| 1777810822 | 6.11° C | 56% | 1513.2 hPa | 0 mm | - | 27 W/m² | - |
| 1777810522 | 6.11° C | 56% | 1513.8 hPa | 0 mm | - | 22 W/m² | - |
| 1777810221 | 6.11° C | 56% | 1513.9 hPa | 0 mm | - | 17 W/m² | - |
| 1777809920 | 6.11° C | 57% | 1513.5 hPa | 0 mm | - | 12 W/m² | - |
| 1777809619 | 6.11° C | 56% | 1513 hPa | 0 mm | - | 7 W/m² | - |
| 1777809318 | 6.11° C | 57% | 1512.8 hPa | 0 mm | - | 4 W/m² | - |
| 1777809017 | 6.67° C | 55% | 1512.4 hPa | 0 mm | - | 1 W/m² | - |
| 1777808717 | 6.67° C | 54% | 1512.4 hPa | 0 mm | - | 1 W/m² | - |
| 1777808417 | 6.11° C | 55% | 1513 hPa | 0 mm | - | 0 W/m² | - |
| 1777808116 | 6.11° C | 56% | 1513.1 hPa | 0 mm | - | 0 W/m² | - |
| 1777807815 | 5.56° C | 56% | 1514.9 hPa | 0 mm | - | 0 W/m² | - |
| 1777807515 | 5° C | 61% | 1516.3 hPa | 0 mm | - | 0 W/m² | - |
| 1777807214 | 5° C | 61% | 1515.9 hPa | 0 mm | - | 0 W/m² | - |
| 1777806912 | 5° C | 61% | 1515.9 hPa | 0 mm | - | 0 W/m² | - |
| 1777806612 | 5.56° C | 60% | 1515.5 hPa | 0 mm | - | 0 W/m² | - |
| 1777806311 | 5.56° C | 59% | 1515.1 hPa | 0 mm | - | 0 W/m² | - |
* Rain latest hour (hover to see other rain measurements)
** Current wind speed in m/s (hover to see current wind gust speed)